createdAt,value
2019-02-25T03:29:50.576Z,4.99
2019-02-25T08:22:45.344Z,8.41
2019-02-25T08:26:11.006Z,8.55
2019-02-25T08:33:23.269Z,8.73
2019-02-25T08:51:25.670Z,9.64
2019-02-25T09:30:49.655Z,11.65
2019-02-25T09:31:49.652Z,11.67
2019-02-25T09:36:58.601Z,11.85
2019-02-25T09:39:26.097Z,11.82
2019-02-25T09:48:01.690Z,12.37
2019-02-25T09:53:50.617Z,12.59
2019-02-25T09:57:16.297Z,12.71
2019-02-25T10:37:15.621Z,14.35
2019-02-25T12:38:28.465Z,20.77
2019-02-25T12:39:28.469Z,20.67
2019-02-25T12:40:28.467Z,20.91
2019-02-25T15:30:07.695Z,17.95
2019-02-25T15:31:06.790Z,17.87
2019-02-25T15:35:32.326Z,17.70
2019-02-25T15:37:44.476Z,17.78
2019-02-25T15:38:43.384Z,17.81
2019-02-25T15:39:42.854Z,17.74
2019-02-25T15:40:42.852Z,17.71
2019-02-25T15:41:44.393Z,17.64
2019-02-25T15:42:42.850Z,17.63
2019-02-25T15:43:42.850Z,17.58
2019-02-25T15:44:44.506Z,17.64
2019-02-25T15:45:42.851Z,17.63
2019-02-25T15:46:42.857Z,17.54
2019-02-25T15:47:44.795Z,17.54
2019-02-25T15:48:43.531Z,17.31
2019-02-25T15:49:42.852Z,17.33
2019-02-25T15:50:46.125Z,17.33
2019-02-25T15:51:43.677Z,17.23
2019-02-25T15:52:42.857Z,17.21
2019-02-25T15:53:46.277Z,17.22
2019-02-25T15:54:43.622Z,17.23
2019-02-25T15:55:42.859Z,17.18
2019-02-25T15:56:42.862Z,17.18
2019-02-25T15:57:42.860Z,17.12
2019-02-25T15:58:42.866Z,17.14
2019-02-25T15:59:42.860Z,17.19
2019-02-25T16:00:42.861Z,17.22
2019-02-25T16:01:42.860Z,17.16
2019-02-25T16:02:42.861Z,17.04
2019-02-25T16:03:43.129Z,17.15
2019-02-25T16:04:42.864Z,17.11
2019-02-25T16:05:42.862Z,17.01
2019-02-25T16:06:42.864Z,16.97
2019-02-25T16:07:42.862Z,16.93
2019-02-25T16:08:42.865Z,17.00
2019-02-25T16:09:42.862Z,17.00
2019-02-25T16:10:42.864Z,16.89
2019-02-25T16:11:43.988Z,16.86
2019-02-25T16:12:42.863Z,16.81
2019-02-25T16:13:42.860Z,16.81
2019-02-25T16:14:44.413Z,16.70
2019-02-25T16:15:42.864Z,16.58
2019-02-25T16:16:42.865Z,16.60
2019-02-25T16:17:42.862Z,16.60
2019-02-25T16:18:42.864Z,16.60
2019-02-25T16:19:47.548Z,16.64
2019-02-25T16:20:45.763Z,16.58
2019-02-25T16:21:43.110Z,16.49
2019-02-25T16:22:42.863Z,16.53
2019-02-25T16:23:43.697Z,16.63
2019-02-25T16:24:43.647Z,16.61
2019-02-25T16:25:42.860Z,16.67
2019-02-25T16:26:42.862Z,16.63
2019-02-25T16:27:43.341Z,16.66
2019-02-25T16:28:42.866Z,16.57
2019-02-25T16:29:42.859Z,16.60
2019-02-25T16:30:44.440Z,16.52
2019-02-25T16:31:42.859Z,16.45
2019-02-25T16:32:44.577Z,16.42
2019-02-25T16:33:42.855Z,16.45
2019-02-25T16:34:42.860Z,16.39
2019-02-25T16:35:43.527Z,16.23
2019-02-25T16:36:44.842Z,16.38
2019-02-25T16:37:42.886Z,16.25
2019-02-25T16:38:42.858Z,16.17
2019-02-25T16:39:42.856Z,16.24
2019-02-25T16:40:42.854Z,16.12
2019-02-25T16:41:43.534Z,16.08
2019-02-25T16:42:42.853Z,16.07
2019-02-25T16:43:42.851Z,16.02
2019-02-25T16:44:42.855Z,16.02
2019-02-25T16:45:46.460Z,15.97
2019-02-25T16:46:43.698Z,15.93
2019-02-25T16:47:42.854Z,15.86
2019-02-25T16:48:42.851Z,15.92
2019-02-25T16:49:42.848Z,15.92
2019-02-25T16:50:45.814Z,15.84
2019-02-25T16:51:43.154Z,15.92
2019-02-25T16:52:44.845Z,15.86
2019-02-25T16:53:43.690Z,15.80
2019-02-25T16:54:42.851Z,15.76
2019-02-25T16:55:45.079Z,15.80
2019-02-25T16:56:42.848Z,15.82
2019-02-25T16:57:43.396Z,15.72
2019-02-25T16:58:42.845Z,15.62
2019-02-25T16:59:42.839Z,15.62
2019-02-25T17:00:42.851Z,15.59
2019-02-25T17:01:42.835Z,15.50
2019-02-25T17:02:44.752Z,15.50
2019-02-25T17:03:43.805Z,15.49
2019-02-25T17:04:42.840Z,15.34
2019-02-25T17:05:45.655Z,15.34
2019-02-25T17:06:42.844Z,15.19
2019-02-25T17:07:44.300Z,15.27
2019-02-25T17:08:42.843Z,15.10
2019-02-25T17:09:42.963Z,15.13
2019-02-25T17:10:42.836Z,15.16
2019-02-25T17:11:44.011Z,15.03
2019-02-25T17:12:43.858Z,15.03
2019-02-25T17:13:42.823Z,15.01
2019-02-25T17:14:43.077Z,14.99
2019-02-25T17:15:45.958Z,14.91
2019-02-25T17:16:42.823Z,14.75
2019-02-25T17:17:42.818Z,14.78
2019-02-25T17:18:45.962Z,14.77
2019-02-25T17:19:42.816Z,14.68
2019-02-25T17:20:44.893Z,14.69
2019-02-25T17:21:43.292Z,14.65
2019-02-25T17:41:20.431Z,13.77
2019-02-25T17:42:22.077Z,13.66
2019-02-25T17:43:20.425Z,13.59
2019-02-25T17:44:22.740Z,13.69
2019-02-25T17:45:22.438Z,13.63
2019-02-25T17:46:20.419Z,13.63
2019-02-25T17:48:21.230Z,13.49
2019-02-25T17:49:20.819Z,13.39
2019-02-25T17:50:20.412Z,13.38
2019-02-25T17:51:20.967Z,13.38
2019-02-25T17:52:21.281Z,13.22
2019-02-25T17:53:22.360Z,13.19
2019-02-25T17:54:20.401Z,13.14
2019-02-25T17:55:20.394Z,13.19
2019-02-25T17:56:22.072Z,13.19
2019-02-25T17:57:20.392Z,13.22
2019-02-25T17:58:21.956Z,13.07
2019-02-25T17:59:21.373Z,13.14
2019-02-25T18:00:20.385Z,13.14
2019-02-25T18:01:21.989Z,13.15
2019-02-25T18:02:20.380Z,13.07
2019-02-25T18:03:21.711Z,12.97
2019-02-25T18:04:20.372Z,12.86
2019-02-25T18:05:20.810Z,12.86
2019-02-25T18:06:23.325Z,12.85
2019-02-25T18:07:20.361Z,12.83
2019-02-25T18:08:20.366Z,12.83
2019-02-25T18:09:20.983Z,12.75
2019-02-25T18:10:20.849Z,12.71
2019-02-25T18:11:22.377Z,12.70
2019-02-25T18:12:20.351Z,12.68
2019-02-25T18:13:21.983Z,12.67
2019-02-25T18:20:04.155Z,12.53
2019-02-25T18:21:04.173Z,12.39
2019-02-25T18:22:04.151Z,12.38
2019-02-25T18:23:05.002Z,12.41
2019-02-25T18:24:04.139Z,12.39
2019-02-25T18:25:04.955Z,12.35
2019-02-25T18:28:29.822Z,12.37
2019-02-25T18:29:29.822Z,12.32
2019-02-25T18:30:29.814Z,12.19
2019-02-25T18:59:34.577Z,11.33
2019-02-25T19:00:34.569Z,11.37
2019-02-25T19:01:34.564Z,11.44
2019-02-25T19:02:35.979Z,11.39
2019-02-25T19:03:35.486Z,11.40
2019-02-25T19:04:35.513Z,11.28
2019-02-25T19:05:34.544Z,11.35
2019-02-25T19:06:34.545Z,11.32
2019-02-25T19:07:34.538Z,11.22
2019-02-25T19:08:34.536Z,11.11
2019-02-25T19:10:57.378Z,11.15
2019-02-25T19:11:57.913Z,11.10
2019-02-25T19:12:58.738Z,11.11
2019-02-25T19:14:53.028Z,11.14
2019-02-25T19:15:50.765Z,11.14
2019-02-25T19:16:49.422Z,11.15
2019-02-25T19:17:50.120Z,11.09
2019-02-25T19:18:49.430Z,11.02
2019-02-25T19:19:51.523Z,11.02
2019-02-25T19:20:49.402Z,11.02
2019-02-25T19:21:50.054Z,11.02
2019-02-25T19:22:49.395Z,11.03
2019-02-25T19:23:49.393Z,10.88
2019-02-25T19:24:50.868Z,10.94
2019-02-25T19:25:49.381Z,10.91
2019-02-25T19:26:49.376Z,10.86
2019-02-25T19:27:50.136Z,10.79
2019-02-25T19:28:50.102Z,10.79
2019-02-25T19:29:51.167Z,10.85
2019-02-25T19:30:50.682Z,10.79
2019-02-25T19:31:49.356Z,10.81
2019-02-25T19:32:49.349Z,10.73
2019-02-25T19:33:49.353Z,10.78
2019-02-25T19:34:51.825Z,10.73
2019-02-25T19:35:49.339Z,10.67
2019-02-25T19:36:49.344Z,10.70
2019-02-25T19:37:49.354Z,10.64
2019-02-25T19:38:50.285Z,10.63
2019-02-25T19:42:15.481Z,10.52
2019-02-25T19:43:14.246Z,10.48
2019-02-25T19:44:14.863Z,10.40
2019-02-25T19:45:14.240Z,10.41
2019-02-25T19:46:14.228Z,10.40
2019-02-25T19:47:16.241Z,10.38
2019-02-25T19:48:14.220Z,10.40
2019-02-25T19:49:15.997Z,10.38
2019-02-25T19:50:14.210Z,10.40
2019-02-25T19:51:14.206Z,10.33
2019-02-25T19:52:14.916Z,10.32
2019-02-25T19:53:15.382Z,10.25
2019-02-25T19:54:16.196Z,10.32
2019-02-25T19:55:15.829Z,10.22
2019-02-25T19:56:14.177Z,10.26
2019-02-25T19:57:16.326Z,10.17
2019-02-25T19:58:14.170Z,10.14
2019-02-25T19:59:14.166Z,10.20
2019-02-25T20:00:17.428Z,10.14
2019-02-25T20:01:14.156Z,10.09
2019-02-25T20:02:14.149Z,10.05
2019-02-25T20:03:14.148Z,10.05
2019-02-25T20:04:15.943Z,10.04
2019-02-25T20:05:14.793Z,9.97
2019-02-25T20:06:16.315Z,10.04
2019-02-25T20:07:15.980Z,10.02
2019-02-25T20:08:14.117Z,9.91
2019-02-25T20:09:14.116Z,9.91
2019-02-25T20:10:14.162Z,9.87
2019-02-25T20:11:14.106Z,9.78
2019-02-25T20:12:16.229Z,9.83
2019-02-25T20:13:14.094Z,9.89
2019-02-25T20:14:16.580Z,9.76
2019-02-25T20:15:16.552Z,9.84
2019-02-25T20:16:17.977Z,9.86
2019-02-25T20:17:14.072Z,9.86
2019-02-25T20:18:16.019Z,9.78
2019-02-25T20:19:14.063Z,9.71
2019-02-25T20:20:15.048Z,9.79
2019-02-25T20:21:14.059Z,9.57
2019-02-25T20:22:14.667Z,9.66
2019-02-25T20:23:14.060Z,9.64
2019-02-25T20:24:14.684Z,9.65
2019-02-25T20:25:16.298Z,9.64
2019-02-25T20:26:15.503Z,9.78
2019-02-25T20:27:14.020Z,9.72
2019-02-25T20:28:15.857Z,9.78
2019-02-25T20:29:14.008Z,9.79
2019-02-25T20:30:14.001Z,9.71
2019-02-25T20:31:14.904Z,9.68
2019-02-25T20:32:14.806Z,9.72
2019-02-25T20:33:13.989Z,9.74
2019-02-25T20:34:16.519Z,9.60
2019-02-25T20:35:15.750Z,9.74
2019-02-25T20:36:17.106Z,9.61
2019-02-25T20:37:13.980Z,9.60
2019-02-25T20:38:13.957Z,9.65
2019-02-25T20:39:13.958Z,9.65
2019-02-25T20:40:17.117Z,9.60
2019-02-25T20:41:15.989Z,9.61
2019-02-25T20:42:17.315Z,9.54
2019-02-25T20:43:17.345Z,9.57
2019-02-25T20:44:13.927Z,9.57
2019-02-25T20:45:13.927Z,9.42
2019-02-25T20:46:13.937Z,9.33
2019-02-25T20:47:13.917Z,9.47
2019-02-25T20:48:13.901Z,9.42
2019-02-25T20:49:16.136Z,9.42
2019-02-25T20:50:14.564Z,9.40
2019-02-25T20:51:13.893Z,9.40
2019-02-25T20:52:15.876Z,9.35
2019-02-25T20:53:13.880Z,9.35
2019-02-25T20:54:17.791Z,9.38
2019-02-25T20:55:13.866Z,9.23
2019-02-25T20:56:13.860Z,9.33
2019-02-25T20:57:14.285Z,9.28
2019-02-25T20:58:16.180Z,9.31
2019-02-25T20:59:13.846Z,9.33
2019-02-25T21:00:15.491Z,9.32
2019-02-25T21:01:14.743Z,9.35
2019-02-25T21:02:16.196Z,9.24
2019-02-25T21:03:15.994Z,9.21
2019-02-25T21:04:15.583Z,9.29
2019-02-25T21:05:14.694Z,9.26
2019-02-25T21:06:14.508Z,9.18
2019-02-25T21:07:13.799Z,9.17
2019-02-25T21:08:14.629Z,9.08
2019-02-25T21:09:13.788Z,9.20
2019-02-25T21:10:13.780Z,9.02
2019-02-25T21:11:15.649Z,9.04
2019-02-25T21:12:15.705Z,8.95
2019-02-25T21:13:13.763Z,8.98
2019-02-25T21:14:13.759Z,8.98
2019-02-25T21:15:13.752Z,8.98
2019-02-25T21:16:13.743Z,8.94
2019-02-25T21:17:13.740Z,8.99
2019-02-25T21:18:13.732Z,8.96
2019-02-25T21:19:15.569Z,9.04
2019-02-25T21:20:13.720Z,8.96
2019-02-25T21:21:14.494Z,8.89
2019-02-25T21:22:13.722Z,8.71
2019-02-25T21:23:13.707Z,8.71
2019-02-25T21:24:13.720Z,8.62
2019-02-25T21:25:13.694Z,8.63
2019-02-25T21:26:13.685Z,8.62
2019-02-25T21:27:13.681Z,8.66
2019-02-25T21:28:13.674Z,8.65
2019-02-25T21:29:13.672Z,8.65
2019-02-25T21:30:13.663Z,8.55
2019-02-25T21:31:16.612Z,8.56
2019-02-25T21:32:17.194Z,8.59
2019-02-25T21:33:17.385Z,8.62
2019-02-25T21:34:17.742Z,8.71
2019-02-25T21:35:13.936Z,8.65
2019-02-25T21:36:13.627Z,8.59
2019-02-25T21:37:13.620Z,8.65
2019-02-25T21:38:13.614Z,8.65
2019-02-25T21:39:14.762Z,8.71
2019-02-25T21:40:13.602Z,8.62
2019-02-25T21:41:15.441Z,8.66
2019-02-25T21:42:15.403Z,8.66
2019-02-25T21:43:16.275Z,8.62
2019-02-25T21:44:16.660Z,8.66
2019-02-25T21:45:16.083Z,8.58
2019-02-25T21:46:17.868Z,8.59
2019-02-25T21:47:13.560Z,8.53
2019-02-25T21:48:13.552Z,8.55
2019-02-25T21:49:13.547Z,8.50
2019-02-25T21:50:13.540Z,8.38
2019-02-25T21:51:14.291Z,8.43
2019-02-25T21:52:15.417Z,8.41
2019-02-25T21:53:15.921Z,8.43
2019-02-25T21:54:13.517Z,8.43
2019-02-25T21:55:13.513Z,8.44
2019-02-25T21:56:13.505Z,8.34
2019-02-25T21:57:14.598Z,8.29
2019-02-25T21:58:13.501Z,8.29
2019-02-25T21:59:15.077Z,8.15
2019-02-25T22:00:13.478Z,8.16
2019-02-25T22:01:13.475Z,8.22
2019-02-25T22:02:13.468Z,8.18
2019-02-25T22:03:15.795Z,8.12
2019-02-25T22:04:15.542Z,8.19
2019-02-25T22:05:14.344Z,8.23
2019-02-25T22:06:13.449Z,8.26
2019-02-25T22:07:16.989Z,8.23
2019-02-25T22:08:13.429Z,8.29
2019-02-25T22:09:13.442Z,8.29
2019-02-25T22:10:13.415Z,8.37
2019-02-25T22:11:17.215Z,8.37
2019-02-25T22:12:13.402Z,8.37
2019-02-25T22:13:14.307Z,8.38
2019-02-25T22:14:15.893Z,8.40
2019-02-25T22:15:15.310Z,8.33
2019-02-25T22:16:16.204Z,8.41
2019-02-25T22:17:15.091Z,8.41
2019-02-25T22:18:14.111Z,8.37
2019-02-25T22:19:14.165Z,8.41
2019-02-25T22:20:14.358Z,8.28
2019-02-25T22:21:14.131Z,8.36
2019-02-25T22:24:40.594Z,8.30
2019-02-25T22:25:39.018Z,8.19
2019-02-25T22:26:39.008Z,8.18
2019-02-25T22:27:41.100Z,8.11
2019-02-25T22:28:39.496Z,8.10
2019-02-25T22:29:40.837Z,8.07
2019-02-25T22:30:38.993Z,7.98
2019-02-25T22:31:40.058Z,8.04
2019-02-25T22:32:40.689Z,8.04
2019-02-25T22:33:38.965Z,8.00
2019-02-25T22:34:38.955Z,7.95
2019-02-25T22:35:40.565Z,8.01
2019-02-25T22:36:41.553Z,7.92
2019-02-25T22:37:38.936Z,7.98
2019-02-25T22:38:38.977Z,7.93
2019-02-25T22:39:40.809Z,7.87
2019-02-25T22:40:39.112Z,7.83
2019-02-25T22:41:40.188Z,7.83
2019-02-25T22:42:38.900Z,7.85
2019-02-25T22:43:39.638Z,7.92
2019-02-25T22:44:38.891Z,7.89
2019-02-25T22:45:39.800Z,7.90
2019-02-25T22:46:40.926Z,7.95
2019-02-25T22:47:38.870Z,7.93
2019-02-25T22:48:41.998Z,7.89
2019-02-25T22:49:38.857Z,7.92
2019-02-25T22:50:38.847Z,8.04
2019-02-25T22:51:38.847Z,8.04
2019-02-25T22:52:38.836Z,8.01
2019-02-25T22:53:38.833Z,7.89
2019-02-25T22:54:40.944Z,7.86
2019-02-25T22:55:41.849Z,7.93
2019-02-25T22:56:38.813Z,8.00
2019-02-25T22:57:40.847Z,8.04
2019-02-25T22:58:40.669Z,7.92
2019-02-25T22:59:38.790Z,7.89
2019-02-25T23:00:41.588Z,7.80
2019-02-25T23:01:38.777Z,7.83
2019-02-25T23:02:40.984Z,7.83
2019-02-25T23:03:40.972Z,7.75
2019-02-25T23:04:41.069Z,7.77
2019-02-25T23:06:42.047Z,7.63
2019-02-25T23:07:39.129Z,7.68
2019-02-25T23:08:42.067Z,7.63
2019-02-25T23:09:41.060Z,7.69
2019-02-25T23:10:42.003Z,7.79
2019-02-25T23:11:41.796Z,7.67
2019-02-25T23:12:38.703Z,7.68
2019-02-25T23:13:38.695Z,7.77
2019-02-25T23:14:40.427Z,7.68
2019-02-25T23:15:38.681Z,7.67
2019-02-25T23:16:39.399Z,7.68
2019-02-25T23:17:40.130Z,7.74
2019-02-25T23:18:38.696Z,7.61
2019-02-25T23:19:39.171Z,7.67
2019-02-25T23:21:23.987Z,7.71
2019-02-25T23:22:21.055Z,7.69
2019-02-25T23:23:23.534Z,7.53
2019-02-25T23:24:21.774Z,7.67
2019-02-25T23:25:21.030Z,7.50
2019-02-25T23:26:21.670Z,7.49
2019-02-25T23:27:21.038Z,7.46
2019-02-25T23:28:22.823Z,7.49
2019-02-25T23:29:22.211Z,7.46
2019-02-25T23:30:23.176Z,7.45
2019-02-25T23:31:20.992Z,7.45
2019-02-25T23:32:20.985Z,7.45
2019-02-25T23:33:22.729Z,7.39
2019-02-25T23:34:22.782Z,7.39
2019-02-25T23:35:22.856Z,7.46
2019-02-25T23:36:21.766Z,7.42
2019-02-25T23:37:21.733Z,7.37
2019-02-25T23:38:20.944Z,7.32
2019-02-25T23:39:20.934Z,7.27
2019-02-25T23:40:20.932Z,7.35
2019-02-25T23:41:20.924Z,7.27
2019-02-25T23:43:14.962Z,7.35
2019-02-25T23:44:15.014Z,7.28
2019-02-25T23:49:48.515Z,7.25
2019-02-25T23:52:11.381Z,7.12
2019-02-25T23:53:11.578Z,7.17
2019-02-25T23:54:12.128Z,7.16
